createdAt,value
2022-12-31T00:01:26.286Z,99728.17
2022-12-31T00:03:55.866Z,99726.61
2022-12-31T00:06:33.490Z,99723.52
2022-12-31T00:09:05.332Z,99724.54
2022-12-31T00:11:36.489Z,99727.83
2022-12-31T00:14:05.418Z,99728.36
2022-12-31T00:16:40.125Z,99730.95
2022-12-31T00:19:11.267Z,99730.62
2022-12-31T00:21:40.438Z,99728.37
2022-12-31T00:24:09.632Z,99738.73
2022-12-31T00:26:38.010Z,99741.70
2022-12-31T00:29:07.246Z,99741.70
2022-12-31T00:31:37.826Z,99741.02
2022-12-31T00:34:07.331Z,99748.46
2022-12-31T00:36:39.716Z,99755.73
2022-12-31T00:39:10.352Z,99759.17
2022-12-31T00:41:39.152Z,99763.48
2022-12-31T00:44:07.915Z,99762.98
2022-12-31T00:49:05.958Z,99756.22
2022-12-31T00:51:34.798Z,99759.69
2022-12-31T00:54:03.344Z,99763.67
2022-12-31T00:56:33.851Z,99766.27
2022-12-31T00:59:02.754Z,99766.27
2022-12-31T01:01:37.540Z,99772.67
2022-12-31T01:04:14.762Z,99776.13
2022-12-31T01:06:44.441Z,99771.81
2022-12-31T01:09:15.120Z,99774.92
2022-12-31T01:11:43.969Z,99775.45
2022-12-31T01:14:15.576Z,99781.67
2022-12-31T01:16:55.171Z,99779.94
2022-12-31T01:19:29.435Z,99780.13
2022-12-31T01:21:58.528Z,99785.14
2022-12-31T01:24:27.274Z,99781.16
2022-12-31T01:26:58.888Z,99781.50
2022-12-31T01:29:27.482Z,99786.00
2022-12-31T01:31:55.943Z,99788.60
2022-12-31T01:34:24.508Z,99790.16
2022-12-31T01:36:52.869Z,99791.54
2022-12-31T01:39:21.412Z,99786.70
2022-12-31T01:41:49.843Z,99787.57
2022-12-31T01:44:27.277Z,99781.67
2022-12-31T01:47:00.629Z,99774.06
2022-12-31T01:49:49.840Z,99774.91
2022-12-31T01:52:27.008Z,99777.52
2022-12-31T01:55:08.606Z,99772.14
2022-12-31T01:57:38.710Z,99780.45
2022-12-31T02:00:08.739Z,99777.85
2022-12-31T02:02:37.658Z,99775.41
2022-12-31T02:05:19.413Z,99779.04
2022-12-31T02:07:49.712Z,99777.98
2022-12-31T02:10:18.311Z,99775.04
2022-12-31T02:12:47.440Z,99771.06
2022-12-31T02:15:16.382Z,99764.83
2022-12-31T02:18:19.143Z,99756.17
2022-12-31T02:21:12.820Z,99755.83
2022-12-31T02:23:49.983Z,99750.46
2022-12-31T02:26:45.424Z,99749.60
2022-12-31T02:29:32.611Z,99752.36
2022-12-31T02:32:18.925Z,99753.41
2022-12-31T02:34:56.723Z,99748.91
2022-12-31T02:37:27.206Z,99750.99
2022-12-31T02:39:56.489Z,99757.06
2022-12-31T02:42:24.807Z,99758.62
2022-12-31T02:44:53.126Z,99762.60
2022-12-31T02:47:27.512Z,99765.39
2022-12-31T02:50:10.838Z,99766.25
2022-12-31T02:52:48.485Z,99770.39
2022-12-31T02:55:40.277Z,99770.92
2022-12-31T02:59:07.353Z,99771.80
2022-12-31T03:01:59.702Z,99776.83
2022-12-31T03:04:35.310Z,99781.16
2022-12-31T03:07:08.357Z,99782.38
2022-12-31T03:09:38.176Z,99790.32
2022-12-31T03:12:27.482Z,99789.46
2022-12-31T03:14:55.977Z,99790.33
2022-12-31T03:17:24.889Z,99795.18
2022-12-31T03:20:11.663Z,99791.02
2022-12-31T03:22:47.970Z,99785.84
2022-12-31T03:25:36.990Z,99791.71
2022-12-31T03:28:11.974Z,99798.13
2022-12-31T03:30:42.602Z,99798.30
2022-12-31T03:33:11.792Z,99802.98
2022-12-31T03:35:41.583Z,99800.91
2022-12-31T03:38:10.912Z,99800.38
2022-12-31T03:40:47.682Z,99801.95
2022-12-31T03:43:16.591Z,99808.52
2022-12-31T03:45:45.182Z,99813.70
2022-12-31T03:48:14.344Z,99819.60
2022-12-31T03:50:42.774Z,99822.36
2022-12-31T03:53:11.407Z,99827.03
2022-12-31T03:55:39.927Z,99829.97
2022-12-31T03:58:08.395Z,99833.77
2022-12-31T04:00:36.723Z,99833.08
2022-12-31T04:03:05.137Z,99835.48
2022-12-31T04:05:34.849Z,99831.50
2022-12-31T04:08:04.077Z,99830.82
2022-12-31T04:10:32.489Z,99835.32
2022-12-31T04:13:03.381Z,99842.07
2022-12-31T04:15:31.820Z,99838.61
2022-12-31T04:18:00.462Z,99844.83
2022-12-31T04:20:29.238Z,99853.81
2022-12-31T04:22:58.353Z,99853.65
2022-12-31T04:25:26.841Z,99857.98
2022-12-31T04:27:55.641Z,99864.37
2022-12-31T04:30:23.908Z,99864.71
2022-12-31T04:32:52.515Z,99867.65
2022-12-31T04:35:21.612Z,99868.52
2022-12-31T04:37:49.895Z,99870.10
2022-12-31T04:40:18.713Z,99876.66
2022-12-31T04:42:47.436Z,99879.06
2022-12-31T04:45:15.789Z,99879.42
2022-12-31T04:47:44.105Z,99879.92
2022-12-31T04:50:12.574Z,99881.50
2022-12-31T04:52:43.066Z,99883.39
2022-12-31T04:55:12.825Z,99882.36
2022-12-31T04:57:43.025Z,99891.70
2022-12-31T05:00:11.932Z,99888.23
2022-12-31T05:02:40.988Z,99884.08
2022-12-31T05:05:09.989Z,99885.46
2022-12-31T05:07:38.516Z,99892.56
2022-12-31T05:10:08.040Z,99896.02
2022-12-31T05:12:36.327Z,99905.55
2022-12-31T05:15:05.195Z,99906.41
2022-12-31T05:17:34.080Z,99904.51
2022-12-31T05:20:02.784Z,99908.31
2022-12-31T05:22:31.893Z,99908.48
2022-12-31T05:25:01.876Z,99910.05
2022-12-31T05:27:32.054Z,99918.88
2022-12-31T05:30:01.339Z,99914.02
2022-12-31T05:32:30.049Z,99911.25
2022-12-31T05:35:00.675Z,99908.65
2022-12-31T05:37:32.800Z,99907.27
2022-12-31T05:40:01.649Z,99902.76
2022-12-31T05:42:30.013Z,99905.52
2022-12-31T05:44:58.657Z,99901.73
2022-12-31T05:47:27.122Z,99896.89
2022-12-31T05:49:55.662Z,99896.02
2022-12-31T05:52:23.960Z,99900.02
2022-12-31T05:54:52.438Z,99905.55
2022-12-31T05:57:21.187Z,99906.77
2022-12-31T05:59:49.578Z,99911.09
2022-12-31T06:02:18.617Z,99913.16
2022-12-31T06:04:47.088Z,99915.23
2022-12-31T06:07:16.310Z,99921.48
2022-12-31T06:09:45.030Z,99922.33
2022-12-31T06:12:13.437Z,99922.51
2022-12-31T06:14:45.539Z,99923.89
2022-12-31T06:17:14.985Z,99930.80
2022-12-31T06:19:43.755Z,99932.70
2022-12-31T06:22:12.580Z,99943.44
2022-12-31T06:24:41.147Z,99952.59
2022-12-31T06:27:09.565Z,99955.19
2022-12-31T06:29:37.928Z,99957.95
2022-12-31T06:32:06.692Z,99956.23
2022-12-31T06:34:35.435Z,99956.08
2022-12-31T06:37:03.800Z,99953.83
2022-12-31T06:39:32.460Z,99957.80
2022-12-31T06:42:00.890Z,99959.19
2022-12-31T06:44:29.262Z,99964.20
2022-12-31T06:46:58.435Z,99965.92
2022-12-31T06:49:27.044Z,99973.70
2022-12-31T06:51:55.345Z,99975.41
2022-12-31T06:54:24.168Z,99981.45
2022-12-31T06:56:53.195Z,99989.42
2022-12-31T06:59:27.599Z,99998.77
2022-12-31T07:02:05.636Z,100011.55
2022-12-31T07:05:04.337Z,100016.38
2022-12-31T07:07:43.139Z,100028.63
2022-12-31T07:10:29.971Z,100038.15
2022-12-31T07:13:24.547Z,100030.70
2022-12-31T07:16:28.997Z,100034.50
2022-12-31T07:19:00.177Z,100041.56
2022-12-31T07:21:41.446Z,100042.09
2022-12-31T07:24:11.630Z,100041.90
2022-12-31T07:26:56.979Z,100044.67
2022-12-31T07:29:40.980Z,100050.89
2022-12-31T07:32:16.780Z,100053.49
2022-12-31T07:34:48.647Z,100050.03
2022-12-31T07:37:29.705Z,100038.28
2022-12-31T07:40:31.787Z,100032.59
2022-12-31T07:43:06.324Z,100033.98
2022-12-31T07:46:15.363Z,100041.58
2022-12-31T07:48:44.570Z,100051.27
2022-12-31T07:51:14.146Z,100061.67
2022-12-31T07:53:46.774Z,100068.92
2022-12-31T07:56:15.542Z,100075.48
2022-12-31T08:04:07.819Z,100084.50
2022-12-31T08:06:42.637Z,100086.39
2022-12-31T08:09:46.566Z,100084.84
2022-12-31T08:12:16.701Z,100097.13
2022-12-31T08:14:48.550Z,100100.77
2022-12-31T08:17:20.435Z,100106.99
2022-12-31T08:19:49.452Z,100105.10
2022-12-31T08:22:22.536Z,100104.42
2022-12-31T08:24:52.064Z,100101.13
2022-12-31T08:27:33.375Z,100101.14
2022-12-31T08:30:20.445Z,100106.00
2022-12-31T08:33:11.543Z,100104.09
2022-12-31T08:35:49.328Z,100101.66
2022-12-31T08:38:46.409Z,100109.10
2022-12-31T08:41:52.635Z,100113.95
2022-12-31T08:44:59.237Z,100113.95
2022-12-31T08:48:00.200Z,100111.70
2022-12-31T08:50:29.221Z,100116.02
2022-12-31T08:52:58.097Z,100119.31
2022-12-31T08:55:28.050Z,100123.46
2022-12-31T08:58:08.661Z,100121.41
2022-12-31T09:00:40.877Z,100120.37
2022-12-31T09:03:31.565Z,100127.29
2022-12-31T09:06:29.380Z,100134.56
2022-12-31T09:09:35.558Z,100134.23
2022-12-31T09:12:25.831Z,100139.42
2022-12-31T09:15:09.299Z,100138.05
2022-12-31T09:17:47.918Z,100141.84
2022-12-31T09:20:23.151Z,100145.83
2022-12-31T09:22:53.914Z,100146.70
2022-12-31T09:25:24.737Z,100146.19
2022-12-31T09:28:11.197Z,100148.59
2022-12-31T09:31:29.569Z,100151.36
2022-12-31T09:34:38.080Z,100165.17
2022-12-31T09:37:35.279Z,100176.80
2022-12-31T09:40:32.998Z,100178.70
2022-12-31T09:43:57.360Z,100182.15
2022-12-31T09:46:48.713Z,100182.13
2022-12-31T09:49:32.535Z,100182.98
2022-12-31T09:52:20.110Z,100191.13
2022-12-31T09:55:01.851Z,100192.52
2022-12-31T09:57:48.379Z,100197.36
2022-12-31T10:00:29.592Z,100208.25
2022-12-31T10:03:00.828Z,100208.59
2022-12-31T10:05:54.764Z,100212.23
2022-12-31T10:08:50.692Z,100221.56
2022-12-31T10:11:34.490Z,100232.13
2022-12-31T10:14:24.166Z,100237.86
2022-12-31T10:16:58.771Z,100244.80
2022-12-31T10:19:47.512Z,100242.05
2022-12-31T10:22:27.998Z,100246.25
2022-12-31T10:25:19.722Z,100251.45
2022-12-31T10:28:13.872Z,100256.48
2022-12-31T10:30:53.519Z,100263.77
2022-12-31T10:33:44.944Z,100269.13
2022-12-31T10:36:29.378Z,100271.38
2022-12-31T10:39:24.427Z,100278.83
2022-12-31T10:42:25.012Z,100280.75
2022-12-31T10:44:59.885Z,100283.70
2022-12-31T10:47:36.464Z,100284.04
2022-12-31T10:50:40.502Z,100287.68
2022-12-31T10:53:33.166Z,100289.74
2022-12-31T10:56:24.519Z,100285.23
2022-12-31T10:59:39.356Z,100284.02
2022-12-31T11:02:11.105Z,100287.48
2022-12-31T11:05:14.372Z,100289.36
2022-12-31T11:08:30.082Z,100295.89
2022-12-31T11:11:18.359Z,100303.52
2022-12-31T11:13:59.525Z,100304.19
2022-12-31T11:16:44.323Z,100307.62
2022-12-31T11:19:24.949Z,100310.19
2022-12-31T11:22:16.920Z,100318.48
2022-12-31T11:25:05.480Z,100322.12
2022-12-31T11:27:54.156Z,100330.42
2022-12-31T11:31:01.967Z,100336.63
2022-12-31T11:34:06.764Z,100342.87
2022-12-31T11:37:14.337Z,100343.56
2022-12-31T11:40:18.672Z,100353.10
2022-12-31T11:42:53.619Z,100358.10
2022-12-31T11:45:45.630Z,100365.55
2022-12-31T11:48:42.837Z,100365.54
2022-12-31T11:51:27.916Z,100372.30
2022-12-31T11:54:20.945Z,100371.27
2022-12-31T11:57:14.696Z,100380.09
2022-12-31T11:59:45.004Z,100385.29
2022-12-31T12:02:29.361Z,100388.40
2022-12-31T12:05:08.417Z,100395.28
2022-12-31T12:07:39.017Z,100397.86
2022-12-31T12:10:36.245Z,100405.64
2022-12-31T12:13:26.815Z,100408.06
2022-12-31T12:16:09.948Z,100411.70
2022-12-31T12:18:50.823Z,100412.92
2022-12-31T12:21:24.213Z,100413.44
2022-12-31T12:24:03.814Z,100414.66
2022-12-31T12:26:46.402Z,100420.73
2022-12-31T12:29:32.731Z,100422.29
2022-12-31T12:32:06.696Z,100426.45
2022-12-31T12:34:43.142Z,100425.42
2022-12-31T12:37:43.039Z,100432.86
2022-12-31T12:40:31.433Z,100436.85
2022-12-31T12:43:03.801Z,100436.65
2022-12-31T12:45:51.681Z,100444.06
2022-12-31T12:48:50.754Z,100448.02
2022-12-31T12:51:45.237Z,100450.98
2022-12-31T12:54:30.625Z,100456.19
2022-12-31T12:57:34.015Z,100457.05
2022-12-31T13:00:11.383Z,100460.66
2022-12-31T13:03:14.402Z,100461.30
2022-12-31T13:05:53.793Z,100464.24
2022-12-31T13:08:50.243Z,100462.83
2022-12-31T13:11:38.624Z,100464.89
2022-12-31T13:14:26.717Z,100462.29
2022-12-31T13:17:22.529Z,100465.41
2022-12-31T13:20:01.764Z,100468.71
2022-12-31T13:22:54.370Z,100474.75
2022-12-31T13:25:31.899Z,100481.82
2022-12-31T13:28:05.824Z,100481.46
2022-12-31T13:30:45.934Z,100478.50
2022-12-31T13:33:25.725Z,100476.74
2022-12-31T13:35:57.803Z,100479.85
2022-12-31T13:38:56.471Z,100487.27
2022-12-31T13:41:32.932Z,100483.93
2022-12-31T13:47:25.957Z,100489.23
2022-12-31T13:49:58.962Z,100486.44
2022-12-31T13:53:04.260Z,100488.17
2022-12-31T13:55:32.686Z,100491.31
2022-12-31T13:58:09.639Z,100495.80
2022-12-31T14:00:52.762Z,100504.63
2022-12-31T14:03:26.121Z,100506.37
2022-12-31T14:06:08.734Z,100512.27
2022-12-31T14:08:38.362Z,100512.09
2022-12-31T14:11:22.694Z,100514.55
2022-12-31T14:14:29.160Z,100520.61
2022-12-31T14:17:10.042Z,100527.20
2022-12-31T14:19:58.782Z,100533.95
2022-12-31T14:23:00.243Z,100533.42
2022-12-31T14:25:46.373Z,100532.19
2022-12-31T14:28:22.171Z,100540.10
2022-12-31T14:30:59.862Z,100538.52
2022-12-31T14:33:40.278Z,100537.63
2022-12-31T14:36:34.540Z,100534.33
2022-12-31T14:39:07.558Z,100534.33
2022-12-31T14:41:37.268Z,100534.83
2022-12-31T14:44:29.049Z,100538.48
2022-12-31T14:46:59.130Z,100539.52
2022-12-31T14:49:38.126Z,100540.02
2022-12-31T14:52:17.168Z,100543.30
2022-12-31T14:54:47.606Z,100545.71
2022-12-31T14:57:20.561Z,100554.20
2022-12-31T15:00:01.814Z,100557.82
2022-12-31T15:02:35.166Z,100556.40
2022-12-31T15:05:19.000Z,100558.30
2022-12-31T15:07:50.596Z,100573.48
2022-12-31T15:10:39.117Z,100572.23
2022-12-31T15:13:33.647Z,100573.26
2022-12-31T15:16:12.344Z,100571.11
2022-12-31T15:18:59.457Z,100576.46
2022-12-31T15:21:59.506Z,100579.40
2022-12-31T15:24:31.797Z,100576.82
2022-12-31T15:27:06.463Z,100582.00
2022-12-31T15:29:37.655Z,100584.05
2022-12-31T15:32:09.347Z,100588.86
2022-12-31T15:34:38.928Z,100589.20
2022-12-31T15:37:29.508Z,100584.70
2022-12-31T15:40:20.117Z,100584.17
2022-12-31T15:43:03.557Z,100579.70
2022-12-31T15:45:43.683Z,100580.54
2022-12-31T15:48:29.837Z,100585.88
2022-12-31T15:51:00.361Z,100587.75
2022-12-31T15:53:38.482Z,100594.31
2022-12-31T15:56:09.572Z,100594.31
2022-12-31T15:58:38.733Z,100600.34
2022-12-31T16:01:17.808Z,100607.60
2022-12-31T16:03:58.048Z,100613.48
2022-12-31T16:06:31.557Z,100624.58
2022-12-31T16:09:01.455Z,100625.14
2022-12-31T16:11:31.694Z,100629.65
2022-12-31T16:14:01.854Z,100632.23
2022-12-31T16:16:33.183Z,100633.30
2022-12-31T16:19:02.951Z,100637.80
2022-12-31T16:21:33.778Z,100640.52
2022-12-31T16:24:28.514Z,100640.66
2022-12-31T16:27:05.265Z,100643.94
2022-12-31T16:29:47.272Z,100656.23
2022-12-31T16:32:21.064Z,100653.98
2022-12-31T16:34:50.640Z,100659.86
2022-12-31T16:37:22.817Z,100657.91
2022-12-31T16:39:59.377Z,100666.33
2022-12-31T16:42:31.788Z,100669.42
2022-12-31T16:45:31.164Z,100675.66
2022-12-31T16:48:24.537Z,100682.92
2022-12-31T16:50:57.211Z,100688.29
2022-12-31T16:53:28.804Z,100696.77
2022-12-31T16:56:11.229Z,100702.30
2022-12-31T16:58:46.396Z,100700.41
2022-12-31T17:01:22.040Z,100702.48
2022-12-31T17:03:57.570Z,100707.84
2022-12-31T17:06:29.248Z,100714.76
2022-12-31T17:09:01.857Z,100716.50
2022-12-31T17:11:37.625Z,100719.95
2022-12-31T17:14:09.307Z,100726.88
2022-12-31T17:17:01.364Z,100725.33
2022-12-31T17:19:50.666Z,100729.66
2022-12-31T17:22:36.546Z,100734.60
2022-12-31T17:25:07.717Z,100737.50
2022-12-31T17:27:38.139Z,100737.86
2022-12-31T17:30:28.945Z,100742.05
2022-12-31T17:33:24.423Z,100742.71
2022-12-31T17:36:21.661Z,100745.94
2022-12-31T17:38:51.898Z,100748.58
2022-12-31T17:41:28.997Z,100749.83
2022-12-31T17:44:02.397Z,100752.09
2022-12-31T17:46:32.562Z,100756.44
2022-12-31T17:49:05.003Z,100760.77
2022-12-31T17:51:33.446Z,100768.77
2022-12-31T17:54:03.438Z,100770.86
2022-12-31T17:56:32.047Z,100773.85
2022-12-31T17:59:01.507Z,100776.67
2022-12-31T18:01:30.108Z,100781.77
2022-12-31T18:04:00.335Z,100784.10
2022-12-31T18:06:30.412Z,100790.77
2022-12-31T18:09:00.149Z,100789.65
2022-12-31T18:11:30.342Z,100794.73
2022-12-31T18:14:00.583Z,100799.78
2022-12-31T18:16:30.591Z,100802.42
2022-12-31T18:19:01.651Z,100804.52
2022-12-31T18:21:40.966Z,100807.25
2022-12-31T18:24:25.702Z,100808.98
2022-12-31T18:26:56.377Z,100816.10
2022-12-31T18:29:24.989Z,100818.52
2022-12-31T18:31:55.231Z,100825.00
2022-12-31T18:34:28.190Z,100829.86
2022-12-31T18:36:58.197Z,100835.42
2022-12-31T18:39:27.831Z,100842.88
2022-12-31T18:41:57.545Z,100839.26
2022-12-31T18:44:27.341Z,100844.64
2022-12-31T18:46:57.088Z,100841.39
2022-12-31T18:49:26.851Z,100843.02
2022-12-31T18:51:58.490Z,100846.36
2022-12-31T18:54:26.895Z,100845.76
2022-12-31T18:56:57.253Z,100847.38
2022-12-31T18:59:28.885Z,100850.03
2022-12-31T19:01:58.256Z,100849.40
2022-12-31T19:04:28.340Z,100849.09
2022-12-31T19:06:57.517Z,100852.78
2022-12-31T19:12:17.041Z,100861.68
2022-12-31T19:14:48.545Z,100863.58
2022-12-31T19:17:17.166Z,100867.64
2022-12-31T19:19:47.156Z,100868.35
2022-12-31T19:22:17.056Z,100870.62
2022-12-31T19:24:46.482Z,100868.38
2022-12-31T19:27:15.529Z,100865.09
2022-12-31T19:29:45.085Z,100864.27
2022-12-31T19:32:13.815Z,100865.35
2022-12-31T19:34:42.203Z,100861.38
2022-12-31T19:37:20.443Z,100862.80
2022-12-31T19:39:49.311Z,100864.73
2022-12-31T19:42:17.825Z,100870.30
2022-12-31T19:44:48.071Z,100869.58
2022-12-31T19:47:18.316Z,100865.60
2022-12-31T19:49:47.991Z,100865.23
2022-12-31T19:52:17.988Z,100869.67
2022-12-31T19:54:47.228Z,100869.25
2022-12-31T19:57:17.953Z,100873.04
2022-12-31T19:59:46.682Z,100871.98
2022-12-31T20:02:15.465Z,100872.19
2022-12-31T20:04:45.450Z,100875.84
2022-12-31T20:07:15.904Z,100879.50
2022-12-31T20:09:45.744Z,100883.33
2022-12-31T20:12:14.998Z,100883.00
2022-12-31T20:14:43.576Z,100889.58
2022-12-31T20:17:13.339Z,100887.65
2022-12-31T20:19:41.795Z,100890.86
2022-12-31T20:22:15.749Z,100892.23
2022-12-31T20:24:46.016Z,100895.83
2022-12-31T20:27:18.573Z,100896.83
2022-12-31T20:29:48.610Z,100898.40
2022-12-31T20:32:18.284Z,100898.58
2022-12-31T20:34:48.110Z,100896.33
2022-12-31T20:37:16.674Z,100894.25
2022-12-31T20:39:46.744Z,100893.60
2022-12-31T20:42:16.475Z,100894.82
2022-12-31T20:44:44.820Z,100893.59
2022-12-31T20:47:14.404Z,100893.02
2022-12-31T20:50:10.195Z,100889.75
2022-12-31T20:52:31.803Z,100891.66
2022-12-31T20:55:01.337Z,100887.94
2022-12-31T20:57:33.741Z,100891.58
2022-12-31T21:00:03.178Z,100888.98
2022-12-31T21:02:41.512Z,100889.49
2022-12-31T21:05:12.834Z,100892.79
2022-12-31T21:07:41.526Z,100895.95
2022-12-31T21:10:10.997Z,100899.09
2022-12-31T21:12:47.432Z,100901.85
2022-12-31T21:15:17.179Z,100905.86
2022-12-31T21:17:46.282Z,100903.80
2022-12-31T21:20:15.859Z,100905.55
2022-12-31T21:22:44.302Z,100912.13
2022-12-31T21:25:14.116Z,100911.80
2022-12-31T21:27:43.394Z,100912.82
2022-12-31T21:30:19.265Z,100917.51
2022-12-31T21:32:48.947Z,100921.12
2022-12-31T21:38:09.202Z,100926.48
2022-12-31T21:40:39.225Z,100929.36
2022-12-31T21:43:08.024Z,100928.65
2022-12-31T21:45:37.685Z,100928.29
2022-12-31T21:48:23.002Z,100931.07
2022-12-31T21:51:06.906Z,100936.05
2022-12-31T21:53:37.494Z,100938.11
2022-12-31T21:56:10.302Z,100937.05
2022-12-31T21:58:41.858Z,100937.38
2022-12-31T22:01:41.700Z,100938.21
2022-12-31T22:04:35.379Z,100934.52
2022-12-31T22:07:00.843Z,100935.01
2022-12-31T22:09:32.700Z,100940.34
2022-12-31T22:12:02.462Z,100943.27
2022-12-31T22:14:32.208Z,100944.48
2022-12-31T22:17:01.776Z,100945.11
2022-12-31T22:19:30.914Z,100947.31
2022-12-31T22:22:00.682Z,100947.95
2022-12-31T22:24:30.953Z,100953.64
2022-12-31T22:27:28.519Z,100952.89
2022-12-31T22:29:50.559Z,100952.33
2022-12-31T22:32:25.445Z,100958.49
2022-12-31T22:34:54.190Z,100957.80
2022-12-31T22:37:54.842Z,100958.30
2022-12-31T22:40:12.880Z,100956.23
2022-12-31T22:42:41.840Z,100957.77
2022-12-31T22:45:14.300Z,100960.71
2022-12-31T22:47:44.076Z,100958.94
2022-12-31T22:50:13.601Z,100963.62
2022-12-31T22:52:42.823Z,100966.55
2022-12-31T22:55:12.824Z,100971.91
2022-12-31T22:57:41.896Z,100972.79
2022-12-31T23:03:09.051Z,100983.95
2022-12-31T23:05:37.538Z,100989.72
2022-12-31T23:08:18.741Z,100995.51
2022-12-31T23:11:13.630Z,101001.14
2022-12-31T23:14:03.154Z,101002.60
2022-12-31T23:16:50.618Z,101006.50
2022-12-31T23:19:38.559Z,101007.44
2022-12-31T23:22:26.183Z,101014.42
2022-12-31T23:24:55.402Z,101019.30
2022-12-31T23:27:23.995Z,101016.41
2022-12-31T23:29:52.483Z,101027.25
2022-12-31T23:32:21.873Z,101029.23
2022-12-31T23:34:51.371Z,101030.23
2022-12-31T23:37:20.390Z,101033.96
2022-12-31T23:39:50.260Z,101037.69
2022-12-31T23:42:20.629Z,101037.60
2022-12-31T23:44:49.973Z,101035.52
2022-12-31T23:47:19.517Z,101040.90
2022-12-31T23:49:48.607Z,101040.70
2022-12-31T23:52:18.334Z,101046.24
2022-12-31T23:54:48.567Z,101047.79
2022-12-31T23:57:18.086Z,101050.03
2022-12-31T23:59:48.224Z,101052.62
